This is the latest recevied weather packets stored in our database for station/object JH5HTX-13. If no packets are shown the sender has not sent any weather packets the latest 1 day(s).
| Time | Temp. | Humidity | Pressure | Rain* | Wind** | Luminosity | Snow |
|---|---|---|---|---|---|---|---|
| 1778044873 | 22.78° C | 67% | 1017.3 hPa | 0 mm | - | - | - |
| 1778043973 | 22.22° C | 67% | 1017.4 hPa | 0 mm | - | - | - |
| 1778043073 | 22.22° C | 69% | 1017.7 hPa | 0 mm | - | - | - |
| 1778042173 | 21.67° C | 70% | 1017.7 hPa | 0 mm | - | - | - |
| 1778039472 | 21.11° C | 69% | 1018.2 hPa | 0 mm | - | - | - |
| 1778038572 | 21.11° C | 69% | 1018.3 hPa | 0 mm | - | - | - |
| 1778037672 | 20.56° C | 70% | 1018.4 hPa | 0 mm | - | - | - |
| 1778036772 | 20.56° C | 70% | 1018.8 hPa | 0 mm | - | - | - |
| 1778035872 | 20° C | 70% | 1018.9 hPa | 0 mm | - | - | - |
| 1778034972 | 20° C | 70% | 1018.9 hPa | 0 mm | - | - | - |
| 1778034072 | 19.44° C | 71% | 1019.5 hPa | 0 mm | - | - | - |
| 1778033172 | 19.44° C | 72% | 1019.4 hPa | 0 mm | - | - | - |
| 1778030471 | 18.89° C | 68% | 1019.9 hPa | 0 mm | - | - | - |
| 1778029571 | 18.33° C | 70% | 1020 hPa | 0 mm | - | - | - |
| 1778028671 | 17.78° C | 70% | 1020.1 hPa | 0 mm | - | - | - |
| 1778027771 | 17.78° C | 70% | 1020.1 hPa | 0 mm | - | - | - |
| 1778026871 | 17.22° C | 72% | 1020.1 hPa | 0 mm | - | - | - |
| 1778025971 | 16.67° C | 73% | 1020.1 hPa | 0 mm | - | - | - |
| 1778025071 | 16.67° C | 75% | 1020.1 hPa | 0 mm | - | - | - |
| 1778024171 | 16.11° C | 76% | 1020.4 hPa | 0 mm | - | - | - |
| 1778017870 | 12.22° C | 86% | 1020.5 hPa | 0 mm | - | - | - |
| 1778007969 | 11.11° C | 83% | 1019.5 hPa | 0 mm | - | - | - |
* Rain latest hour (hover to see other rain measurements)
** Current wind speed in m/s (hover to see current wind gust speed)